EWG1WJ EDDL-EDDM
Flight info
| Callsign | EWG1WJ |
|---|---|
| Flight time | 1h 7m |
| Altitude | 27000 |
| Route | DODEN1T/23L DODEN Y853 BOMBI T104 ROKIL ROKIL1B |
| Aircraft | A320/M-SDE3FGHIRWY/LB1 |
Departure
| Time | 2026-05-04 18:22 |
|---|---|
| Airport | Düsseldorf Airport (EDDL) |
Arrival
| Time | 2026-05-04 19:29 |
|---|---|
| Airport | Munich Airport (EDDM) |
| Time | Latitude | Longitude | Altitude | Speed | Heading |
|---|---|---|---|---|---|
| 2026-05-04 17:48 | 51.28108 | 6.76546 | 129 ft | 0 kts | 96° |
| 2026-05-04 18:10 | 51.28109 | 6.76536 | 124 ft | 4 kts | 96° |
| 2026-05-04 18:10 | 51.28112 | 6.76493 | 125 ft | 4 kts | 96° |
| 2026-05-04 18:11 | 51.28114 | 6.76455 | 124 ft | 4 kts | 80° |
| 2026-05-04 18:11 | 51.28103 | 6.76428 | 125 ft | 4 kts | 360° |
| 2026-05-04 18:11 | 51.28078 | 6.76437 | 125 ft | 4 kts | 333° |
| 2026-05-04 18:11 | 51.28067 | 6.76446 | 123 ft | 0 kts | 327° |
| 2026-05-04 18:14 | 51.28071 | 6.76442 | 126 ft | 3 kts | 327° |
| 2026-05-04 18:15 | 51.28169 | 6.76428 | 127 ft | 14 kts | 6° |
| 2026-05-04 18:15 | 51.28289 | 6.76504 | 123 ft | 0 kts | 5° |
| 2026-05-04 18:15 | 51.28328 | 6.76480 | 125 ft | 8 kts | 351° |
| 2026-05-04 18:16 | 51.28385 | 6.76557 | 123 ft | 14 kts | 53° |
| 2026-05-04 18:16 | 51.28443 | 6.76679 | 123 ft | 11 kts | 53° |
| 2026-05-04 18:16 | 51.28485 | 6.76769 | 124 ft | 10 kts | 54° |
| 2026-05-04 18:17 | 51.28562 | 6.76928 | 126 ft | 8 kts | 53° |
| 2026-05-04 18:17 | 51.28602 | 6.77011 | 125 ft | 12 kts | 52° |
| 2026-05-04 18:17 | 51.28700 | 6.77216 | 127 ft | 14 kts | 53° |
| 2026-05-04 18:18 | 51.28764 | 6.77354 | 128 ft | 17 kts | 54° |
| 2026-05-04 18:18 | 51.28840 | 6.77512 | 128 ft | 20 kts | 52° |
| 2026-05-04 18:18 | 51.28930 | 6.77699 | 124 ft | 23 kts | 52° |
| 2026-05-04 18:18 | 51.29029 | 6.77910 | 128 ft | 25 kts | 53° |
| 2026-05-04 18:19 | 51.29213 | 6.78295 | 140 ft | 21 kts | 52° |
| 2026-05-04 18:19 | 51.29298 | 6.78473 | 147 ft | 17 kts | 52° |
| 2026-05-04 18:19 | 51.29383 | 6.78572 | 152 ft | 16 kts | 1° |
| 2026-05-04 18:20 | 51.29471 | 6.78563 | 152 ft | 9 kts | 356° |
| 2026-05-04 18:20 | 51.29532 | 6.78551 | 152 ft | 8 kts | 336° |
| 2026-05-04 18:20 | 51.29527 | 6.78488 | 151 ft | 7 kts | 235° |
| 2026-05-04 18:20 | 51.29526 | 6.78485 | 151 ft | 0 kts | 234° |
| 2026-05-04 18:21 | 51.29521 | 6.78473 | 150 ft | 3 kts | 234° |
| 2026-05-04 18:21 | 51.29417 | 6.78256 | 145 ft | 62 kts | 232° |
| 2026-05-04 18:22 | 51.29007 | 6.77393 | 127 ft | 130 kts | 232° |
| 2026-05-04 18:22 | 51.28361 | 6.76016 | 268 ft | 168 kts | 231° |
| 2026-05-04 18:22 | 51.27671 | 6.74520 | 1060 ft | 165 kts | 232° |
| 2026-05-04 18:22 | 51.27005 | 6.73056 | 1827 ft | 164 kts | 231° |
| 2026-05-04 18:23 | 51.26283 | 6.71514 | 2240 ft | 184 kts | 231° |
| 2026-05-04 18:23 | 51.25467 | 6.69782 | 2577 ft | 207 kts | 232° |
| 2026-05-04 18:23 | 51.24563 | 6.67864 | 2995 ft | 227 kts | 232° |
| 2026-05-04 18:23 | 51.23566 | 6.65740 | 3507 ft | 250 kts | 231° |
| 2026-05-04 18:24 | 51.22230 | 6.63934 | 4309 ft | 257 kts | 202° |
| 2026-05-04 18:24 | 51.20462 | 6.63600 | 5239 ft | 261 kts | 175° |
| 2026-05-04 18:24 | 51.18642 | 6.63898 | 6244 ft | 262 kts | 175° |
| 2026-05-04 18:24 | 51.16811 | 6.64200 | 7172 ft | 265 kts | 175° |
| 2026-05-04 18:25 | 51.15023 | 6.64971 | 8018 ft | 272 kts | 152° |
| 2026-05-04 18:25 | 51.13636 | 6.67046 | 8869 ft | 281 kts | 123° |
| 2026-05-04 18:25 | 51.13052 | 6.70031 | 9675 ft | 291 kts | 94° |
| 2026-05-04 18:25 | 51.13111 | 6.73290 | 9933 ft | 294 kts | 89° |
| 2026-05-04 18:26 | 51.13247 | 6.76680 | 9974 ft | 324 kts | 88° |
| 2026-05-04 18:26 | 51.13415 | 6.80445 | 9979 ft | 356 kts | 88° |
| 2026-05-04 18:26 | 51.13593 | 6.84520 | 9983 ft | 378 kts | 88° |
| 2026-05-04 18:26 | 51.13768 | 6.88720 | 10116 ft | 383 kts | 88° |
| 2026-05-04 18:27 | 51.13931 | 6.92868 | 11443 ft | 365 kts | 89° |
| 2026-05-04 18:27 | 51.14078 | 6.96756 | 12826 ft | 351 kts | 89° |
| 2026-05-04 18:27 | 51.14220 | 7.00634 | 13776 ft | 351 kts | 89° |
| 2026-05-04 18:27 | 51.14358 | 7.04526 | 14466 ft | 354 kts | 89° |
| 2026-05-04 18:28 | 51.14495 | 7.08471 | 15131 ft | 357 kts | 89° |
| 2026-05-04 18:28 | 51.14632 | 7.12436 | 15775 ft | 361 kts | 89° |
| 2026-05-04 18:28 | 51.14768 | 7.16445 | 16435 ft | 365 kts | 89° |
| 2026-05-04 18:28 | 51.14902 | 7.20499 | 17078 ft | 368 kts | 90° |
| 2026-05-04 18:29 | 51.14587 | 7.24530 | 17675 ft | 367 kts | 112° |
| 2026-05-04 18:29 | 51.13427 | 7.28127 | 18278 ft | 367 kts | 123° |
| 2026-05-04 18:29 | 51.12128 | 7.31663 | 18838 ft | 371 kts | 123° |
| 2026-05-04 18:29 | 51.10829 | 7.35220 | 19385 ft | 374 kts | 123° |
| 2026-05-04 18:30 | 51.08186 | 7.42465 | 20461 ft | 382 kts | 123° |
| 2026-05-04 18:30 | 51.06839 | 7.46137 | 20982 ft | 386 kts | 123° |
| 2026-05-04 18:30 | 51.05477 | 7.49835 | 21488 ft | 390 kts | 123° |
| 2026-05-04 18:31 | 51.04098 | 7.53568 | 21988 ft | 394 kts | 123° |
| 2026-05-04 18:31 | 51.02701 | 7.57351 | 22489 ft | 398 kts | 123° |
| 2026-05-04 18:31 | 51.01296 | 7.61155 | 22975 ft | 402 kts | 123° |
| 2026-05-04 18:31 | 50.99872 | 7.65001 | 23468 ft | 405 kts | 123° |
| 2026-05-04 18:32 | 50.98918 | 7.67576 | 23746 ft | 408 kts | 123° |
| 2026-05-04 18:32 | 50.97333 | 7.71312 | 23951 ft | 407 kts | 132° |
| 2026-05-04 18:32 | 50.95386 | 7.74534 | 24000 ft | 402 kts | 142° |
| 2026-05-04 18:32 | 50.93141 | 7.77145 | 24002 ft | 398 kts | 152° |
| 2026-05-04 18:33 | 50.90773 | 7.79449 | 23998 ft | 399 kts | 152° |
| 2026-05-04 18:33 | 50.88413 | 7.81756 | 24000 ft | 399 kts | 152° |
| 2026-05-04 18:33 | 50.86086 | 7.84043 | 23999 ft | 399 kts | 152° |
| 2026-05-04 18:33 | 50.83731 | 7.86366 | 24063 ft | 401 kts | 151° |
| 2026-05-04 18:34 | 50.81360 | 7.88704 | 24530 ft | 402 kts | 152° |
| 2026-05-04 18:34 | 50.78976 | 7.91048 | 24999 ft | 404 kts | 152° |
| 2026-05-04 18:34 | 50.76583 | 7.93392 | 25456 ft | 405 kts | 152° |
| 2026-05-04 18:34 | 50.74179 | 7.95746 | 25902 ft | 406 kts | 152° |
| 2026-05-04 18:35 | 50.71774 | 7.98095 | 26351 ft | 407 kts | 152° |
| 2026-05-04 18:35 | 50.69358 | 8.00449 | 26785 ft | 409 kts | 153° |
| 2026-05-04 18:35 | 50.66935 | 8.02804 | 27163 ft | 411 kts | 153° |
| 2026-05-04 18:35 | 50.64488 | 8.05175 | 27573 ft | 413 kts | 153° |
| 2026-05-04 18:36 | 50.62044 | 8.07544 | 27972 ft | 415 kts | 153° |
| 2026-05-04 18:36 | 50.59637 | 8.10087 | 28364 ft | 421 kts | 146° |
| 2026-05-04 18:36 | 50.57379 | 8.13049 | 28759 ft | 424 kts | 144° |
| 2026-05-04 18:36 | 50.55082 | 8.16077 | 29168 ft | 426 kts | 145° |
| 2026-05-04 18:37 | 50.52823 | 8.19045 | 29546 ft | 427 kts | 145° |
| 2026-05-04 18:37 | 50.50536 | 8.22039 | 29912 ft | 429 kts | 145° |
| 2026-05-04 18:37 | 50.48233 | 8.25052 | 30236 ft | 431 kts | 145° |
| 2026-05-04 18:37 | 50.45950 | 8.28036 | 30525 ft | 433 kts | 145° |
| 2026-05-04 18:38 | 50.43629 | 8.31063 | 30812 ft | 435 kts | 145° |
| 2026-05-04 18:38 | 50.41287 | 8.34116 | 31105 ft | 437 kts | 145° |
| 2026-05-04 18:38 | 50.38941 | 8.37169 | 31379 ft | 438 kts | 145° |
| 2026-05-04 18:38 | 50.36564 | 8.40259 | 31726 ft | 438 kts | 145° |
| 2026-05-04 18:39 | 50.34375 | 8.43101 | 32109 ft | 437 kts | 145° |
| 2026-05-04 18:39 | 50.32051 | 8.46110 | 32410 ft | 436 kts | 145° |
| 2026-05-04 18:39 | 50.29715 | 8.49133 | 32666 ft | 435 kts | 145° |
| 2026-05-04 18:39 | 50.27387 | 8.52142 | 32908 ft | 435 kts | 145° |
| 2026-05-04 18:40 | 50.25061 | 8.55146 | 32974 ft | 427 kts | 145° |
| 2026-05-04 18:40 | 50.20573 | 8.60945 | 32974 ft | 415 kts | 146° |
| 2026-05-04 18:41 | 50.16126 | 8.66652 | 32971 ft | 413 kts | 146° |
| 2026-05-04 18:41 | 50.11675 | 8.72348 | 32971 ft | 414 kts | 146° |
| 2026-05-04 18:42 | 50.07228 | 8.78029 | 32975 ft | 414 kts | 146° |
| 2026-05-04 18:42 | 50.02818 | 8.83837 | 32971 ft | 416 kts | 143° |
| 2026-05-04 18:43 | 49.98554 | 8.89944 | 32967 ft | 417 kts | 142° |
| 2026-05-04 18:43 | 49.94308 | 8.96091 | 32962 ft | 417 kts | 142° |
| 2026-05-04 18:44 | 49.90016 | 9.02169 | 32962 ft | 417 kts | 143° |
| 2026-05-04 18:44 | 49.85713 | 9.08186 | 32958 ft | 417 kts | 143° |
| 2026-05-04 18:45 | 49.81434 | 9.14167 | 32959 ft | 417 kts | 142° |
| 2026-05-04 18:45 | 49.77101 | 9.20223 | 32958 ft | 417 kts | 142° |
| 2026-05-04 18:46 | 49.72822 | 9.26192 | 32957 ft | 417 kts | 142° |
| 2026-05-04 18:46 | 49.68513 | 9.32185 | 32954 ft | 417 kts | 142° |
| 2026-05-04 18:47 | 49.64194 | 9.38168 | 32958 ft | 417 kts | 142° |
| 2026-05-04 18:47 | 49.60075 | 9.44522 | 32956 ft | 421 kts | 135° |
| 2026-05-04 18:48 | 49.56151 | 9.51230 | 32977 ft | 422 kts | 144° |
| 2026-05-04 18:48 | 49.53685 | 9.53633 | 32985 ft | 421 kts | 162° |
| 2026-05-04 18:48 | 49.50869 | 9.54727 | 32976 ft | 417 kts | 179° |
| 2026-05-04 18:48 | 49.48045 | 9.54420 | 32975 ft | 412 kts | 197° |
| 2026-05-04 18:49 | 49.45338 | 9.52973 | 32982 ft | 411 kts | 204° |
| 2026-05-04 18:49 | 49.40043 | 9.49632 | 32981 ft | 412 kts | 204° |
| 2026-05-04 18:50 | 49.34752 | 9.46264 | 32977 ft | 412 kts | 204° |
| 2026-05-04 18:50 | 49.29463 | 9.42890 | 32977 ft | 411 kts | 204° |
| 2026-05-04 18:51 | 49.24175 | 9.39513 | 32966 ft | 411 kts | 204° |
| 2026-05-04 18:51 | 49.18894 | 9.36136 | 32968 ft | 411 kts | 204° |
| 2026-05-04 18:52 | 49.13586 | 9.32877 | 32961 ft | 411 kts | 196° |
| 2026-05-04 18:52 | 49.10791 | 9.32313 | 32974 ft | 404 kts | 181° |
| 2026-05-04 18:52 | 49.08054 | 9.32942 | 32975 ft | 404 kts | 166° |
| 2026-05-04 18:52 | 49.05506 | 9.34761 | 32972 ft | 410 kts | 149° |
| 2026-05-04 18:53 | 49.03374 | 9.37705 | 32981 ft | 418 kts | 132° |
| 2026-05-04 18:53 | 49.01888 | 9.41542 | 32977 ft | 427 kts | 114° |
| 2026-05-04 18:53 | 49.01212 | 9.45980 | 32976 ft | 436 kts | 96° |
| 2026-05-04 18:54 | 49.01250 | 9.55414 | 32970 ft | 439 kts | 93° |
| 2026-05-04 18:54 | 49.01209 | 9.64742 | 32971 ft | 439 kts | 94° |
| 2026-05-04 18:55 | 49.01142 | 9.74098 | 32977 ft | 450 kts | 94° |
| 2026-05-04 18:55 | 49.01078 | 9.88587 | 32976 ft | 461 kts | 93° |
| 2026-05-04 18:56 | 49.01039 | 9.98359 | 32976 ft | 462 kts | 93° |
| 2026-05-04 18:56 | 49.00988 | 10.08143 | 32978 ft | 462 kts | 93° |
| 2026-05-04 18:57 | 49.00929 | 10.17946 | 32978 ft | 460 kts | 93° |
| 2026-05-04 18:57 | 49.00893 | 10.22815 | 32219 ft | 460 kts | 93° |
| 2026-05-04 18:57 | 49.00854 | 10.27696 | 31467 ft | 460 kts | 93° |
| 2026-05-04 18:58 | 49.00812 | 10.32549 | 30826 ft | 458 kts | 93° |
| 2026-05-04 18:58 | 49.00769 | 10.37383 | 30243 ft | 454 kts | 94° |
| 2026-05-04 18:58 | 49.00418 | 10.42100 | 29635 ft | 446 kts | 107° |
| 2026-05-04 18:58 | 48.99384 | 10.46504 | 28918 ft | 441 kts | 120° |
| 2026-05-04 18:59 | 48.97702 | 10.50461 | 27951 ft | 447 kts | 133° |
| 2026-05-04 18:59 | 48.95571 | 10.53933 | 26857 ft | 450 kts | 137° |
| 2026-05-04 18:59 | 48.93399 | 10.57353 | 26029 ft | 449 kts | 137° |
| 2026-05-04 18:59 | 48.91228 | 10.60765 | 25280 ft | 447 kts | 137° |
| 2026-05-04 19:00 | 48.89108 | 10.64100 | 24577 ft | 444 kts | 136° |
| 2026-05-04 19:00 | 48.86973 | 10.67473 | 23869 ft | 441 kts | 136° |
| 2026-05-04 19:00 | 48.84858 | 10.70825 | 23112 ft | 438 kts | 136° |
| 2026-05-04 19:00 | 48.82753 | 10.74161 | 22290 ft | 436 kts | 136° |
| 2026-05-04 19:01 | 48.80662 | 10.77471 | 21506 ft | 434 kts | 136° |
| 2026-05-04 19:01 | 48.78538 | 10.80805 | 20723 ft | 432 kts | 137° |
| 2026-05-04 19:01 | 48.76408 | 10.83987 | 19972 ft | 429 kts | 139° |
| 2026-05-04 19:01 | 48.74236 | 10.87088 | 19245 ft | 427 kts | 140° |
| 2026-05-04 19:02 | 48.72084 | 10.90086 | 18546 ft | 425 kts | 140° |
| 2026-05-04 19:02 | 48.69899 | 10.93103 | 17774 ft | 423 kts | 140° |
| 2026-05-04 19:02 | 48.67735 | 10.96098 | 16983 ft | 421 kts | 140° |
| 2026-05-04 19:02 | 48.65582 | 10.99102 | 16211 ft | 419 kts | 140° |
| 2026-05-04 19:03 | 48.63455 | 11.02096 | 15459 ft | 417 kts | 139° |
| 2026-05-04 19:03 | 48.61343 | 11.05079 | 14727 ft | 414 kts | 139° |
| 2026-05-04 19:03 | 48.59259 | 11.08024 | 14175 ft | 407 kts | 139° |
| 2026-05-04 19:03 | 48.57217 | 11.10911 | 13801 ft | 396 kts | 139° |
| 2026-05-04 19:04 | 48.55219 | 11.13727 | 13395 ft | 390 kts | 140° |
| 2026-05-04 19:04 | 48.53242 | 11.16504 | 12993 ft | 387 kts | 140° |
| 2026-05-04 19:04 | 48.51270 | 11.19267 | 12601 ft | 385 kts | 140° |
| 2026-05-04 19:04 | 48.49307 | 11.22010 | 12220 ft | 383 kts | 140° |
| 2026-05-04 19:05 | 48.47354 | 11.24730 | 11826 ft | 381 kts | 140° |
| 2026-05-04 19:05 | 48.45417 | 11.27427 | 11453 ft | 379 kts | 140° |
| 2026-05-04 19:05 | 48.43630 | 11.30361 | 11118 ft | 381 kts | 128° |
| 2026-05-04 19:05 | 48.42422 | 11.33924 | 10924 ft | 386 kts | 111° |
| 2026-05-04 19:06 | 48.41910 | 11.37918 | 10938 ft | 391 kts | 95° |
| 2026-05-04 19:06 | 48.42070 | 11.41926 | 10887 ft | 375 kts | 85° |
| 2026-05-04 19:06 | 48.42366 | 11.45694 | 10765 ft | 359 kts | 85° |
| 2026-05-04 19:06 | 48.42663 | 11.49363 | 10612 ft | 346 kts | 85° |
| 2026-05-04 19:07 | 48.42858 | 11.51770 | 10400 ft | 342 kts | 85° |
| 2026-05-04 19:07 | 48.43143 | 11.55310 | 9988 ft | 340 kts | 85° |
| 2026-05-04 19:07 | 48.43421 | 11.58842 | 9528 ft | 338 kts | 85° |
| 2026-05-04 19:07 | 48.43695 | 11.62345 | 9097 ft | 335 kts | 85° |
| 2026-05-04 19:08 | 48.43966 | 11.65804 | 8679 ft | 331 kts | 85° |
| 2026-05-04 19:08 | 48.44233 | 11.69224 | 8356 ft | 325 kts | 85° |
| 2026-05-04 19:08 | 48.44492 | 11.72552 | 8103 ft | 316 kts | 85° |
| 2026-05-04 19:08 | 48.44740 | 11.75785 | 7942 ft | 305 kts | 85° |
| 2026-05-04 19:09 | 48.44977 | 11.78870 | 7945 ft | 288 kts | 85° |
| 2026-05-04 19:09 | 48.45202 | 11.81785 | 7945 ft | 272 kts | 85° |
| 2026-05-04 19:09 | 48.45416 | 11.84568 | 7712 ft | 266 kts | 85° |
| 2026-05-04 19:09 | 48.45623 | 11.87325 | 7336 ft | 265 kts | 85° |
| 2026-05-04 19:10 | 48.45831 | 11.90124 | 6841 ft | 271 kts | 85° |
| 2026-05-04 19:10 | 48.45971 | 11.91989 | 6604 ft | 270 kts | 85° |
| 2026-05-04 19:10 | 48.46249 | 11.95696 | 6134 ft | 267 kts | 85° |
| 2026-05-04 19:10 | 48.46459 | 11.98469 | 5786 ft | 265 kts | 84° |
| 2026-05-04 19:11 | 48.46664 | 12.01212 | 5419 ft | 262 kts | 84° |
| 2026-05-04 19:11 | 48.46866 | 12.03938 | 5037 ft | 260 kts | 84° |
| 2026-05-04 19:11 | 48.47067 | 12.06642 | 4692 ft | 258 kts | 84° |
| 2026-05-04 19:11 | 48.47264 | 12.09295 | 4432 ft | 252 kts | 84° |
| 2026-05-04 19:12 | 48.47297 | 12.11888 | 4175 ft | 244 kts | 103° |
| 2026-05-04 19:12 | 48.45224 | 12.15395 | 3987 ft | 223 kts | 162° |
| 2026-05-04 19:12 | 48.43714 | 12.15809 | 4000 ft | 218 kts | 173° |
| 2026-05-04 19:13 | 48.42220 | 12.15655 | 3995 ft | 215 kts | 201° |
| 2026-05-04 19:13 | 48.41063 | 12.14360 | 4023 ft | 201 kts | 229° |
| 2026-05-04 19:13 | 48.40252 | 12.12768 | 3995 ft | 186 kts | 234° |
| 2026-05-04 19:13 | 48.39503 | 12.11170 | 3993 ft | 186 kts | 234° |
| 2026-05-04 19:14 | 48.38824 | 12.09511 | 3992 ft | 187 kts | 249° |
| 2026-05-04 19:14 | 48.38592 | 12.07595 | 4016 ft | 187 kts | 263° |
| 2026-05-04 19:14 | 48.38451 | 12.05648 | 4006 ft | 187 kts | 263° |
| 2026-05-04 19:14 | 48.38310 | 12.03718 | 4002 ft | 179 kts | 263° |
| 2026-05-04 19:15 | 48.38176 | 12.01917 | 3951 ft | 174 kts | 263° |
| 2026-05-04 19:15 | 48.38042 | 12.00118 | 3784 ft | 172 kts | 263° |
| 2026-05-04 19:15 | 48.37909 | 11.98331 | 3578 ft | 172 kts | 264° |
| 2026-05-04 19:15 | 48.37776 | 11.96547 | 3375 ft | 171 kts | 264° |
| 2026-05-04 19:16 | 48.37643 | 11.94781 | 3154 ft | 170 kts | 264° |
| 2026-05-04 19:16 | 48.37514 | 11.93063 | 2931 ft | 160 kts | 264° |
| 2026-05-04 19:16 | 48.37392 | 11.91439 | 2728 ft | 155 kts | 264° |
| 2026-05-04 19:16 | 48.37270 | 11.89850 | 2527 ft | 150 kts | 264° |
| 2026-05-04 19:17 | 48.37158 | 11.88293 | 2324 ft | 148 kts | 265° |
| 2026-05-04 19:17 | 48.37049 | 11.86763 | 2157 ft | 145 kts | 264° |
| 2026-05-04 19:17 | 48.36930 | 11.85263 | 1942 ft | 145 kts | 265° |
| 2026-05-04 19:17 | 48.36812 | 11.83763 | 1734 ft | 143 kts | 265° |
| 2026-05-04 19:18 | 48.36698 | 11.82286 | 1565 ft | 142 kts | 265° |
| 2026-05-04 19:18 | 48.36597 | 11.80896 | 1483 ft | 124 kts | 264° |
| 2026-05-04 19:18 | 48.36500 | 11.79556 | 1741 ft | 135 kts | 265° |
| 2026-05-04 19:18 | 48.36401 | 11.78109 | 2456 ft | 153 kts | 265° |
| 2026-05-04 19:19 | 48.36288 | 11.76406 | 2923 ft | 172 kts | 265° |
| 2026-05-04 19:19 | 48.36439 | 11.74539 | 3224 ft | 191 kts | 297° |
| 2026-05-04 19:19 | 48.37432 | 11.73161 | 3537 ft | 207 kts | 336° |
| 2026-05-04 19:19 | 48.38836 | 11.72377 | 3948 ft | 222 kts | 343° |
| 2026-05-04 19:20 | 48.40326 | 11.71661 | 4575 ft | 227 kts | 342° |
| 2026-05-04 19:20 | 48.41833 | 11.70865 | 4937 ft | 232 kts | 340° |
| 2026-05-04 19:20 | 48.43335 | 11.69975 | 5004 ft | 231 kts | 340° |
| 2026-05-04 19:20 | 48.44908 | 11.69693 | 5006 ft | 229 kts | 12° |
| 2026-05-04 19:21 | 48.46312 | 11.70728 | 5005 ft | 226 kts | 45° |
| 2026-05-04 19:21 | 48.47092 | 11.72726 | 5008 ft | 223 kts | 77° |
| 2026-05-04 19:21 | 48.47361 | 11.75029 | 5011 ft | 223 kts | 84° |
| 2026-05-04 19:21 | 48.47483 | 11.77352 | 5004 ft | 222 kts | 96° |
| 2026-05-04 19:22 | 48.47220 | 11.79613 | 5010 ft | 222 kts | 103° |
| 2026-05-04 19:22 | 48.46863 | 11.81879 | 5007 ft | 221 kts | 104° |
| 2026-05-04 19:22 | 48.46497 | 11.84134 | 4733 ft | 222 kts | 104° |
| 2026-05-04 19:22 | 48.46124 | 11.86388 | 4346 ft | 227 kts | 104° |
| 2026-05-04 19:23 | 48.45728 | 11.88725 | 4032 ft | 229 kts | 104° |
| 2026-05-04 19:23 | 48.45323 | 11.91065 | 4010 ft | 232 kts | 104° |
| 2026-05-04 19:23 | 48.44914 | 11.93419 | 4001 ft | 233 kts | 104° |
| 2026-05-04 19:23 | 48.44505 | 11.95776 | 4007 ft | 233 kts | 104° |
| 2026-05-04 19:24 | 48.44099 | 11.98107 | 3838 ft | 227 kts | 104° |
| 2026-05-04 19:24 | 48.43701 | 12.00385 | 3612 ft | 223 kts | 104° |
| 2026-05-04 19:24 | 48.43310 | 12.02600 | 3504 ft | 214 kts | 104° |
| 2026-05-04 19:24 | 48.42687 | 12.04538 | 3487 ft | 202 kts | 134° |
| 2026-05-04 19:25 | 48.41472 | 12.05519 | 3504 ft | 199 kts | 171° |
| 2026-05-04 19:25 | 48.40142 | 12.05363 | 3512 ft | 191 kts | 198° |
| 2026-05-04 19:25 | 48.39076 | 12.04421 | 3526 ft | 166 kts | 222° |
| 2026-05-04 19:25 | 48.38422 | 12.03070 | 3512 ft | 156 kts | 244° |
| 2026-05-04 19:26 | 48.38147 | 12.01519 | 3507 ft | 153 kts | 264° |
| 2026-05-04 19:26 | 48.38029 | 11.99938 | 3510 ft | 151 kts | 263° |
| 2026-05-04 19:26 | 48.37907 | 11.98303 | 3492 ft | 166 kts | 263° |
| 2026-05-04 19:26 | 48.37775 | 11.96540 | 3334 ft | 171 kts | 264° |
| 2026-05-04 19:27 | 48.37643 | 11.94775 | 3128 ft | 164 kts | 263° |
| 2026-05-04 19:27 | 48.37518 | 11.93126 | 2930 ft | 156 kts | 264° |
| 2026-05-04 19:27 | 48.37393 | 11.91523 | 2721 ft | 154 kts | 264° |
| 2026-05-04 19:27 | 48.37279 | 11.89918 | 2535 ft | 156 kts | 265° |
| 2026-05-04 19:28 | 48.37159 | 11.88320 | 2336 ft | 151 kts | 265° |
| 2026-05-04 19:28 | 48.37046 | 11.86779 | 2128 ft | 146 kts | 265° |
| 2026-05-04 19:28 | 48.36930 | 11.85282 | 1929 ft | 143 kts | 265° |
| 2026-05-04 19:28 | 48.36817 | 11.83816 | 1736 ft | 139 kts | 265° |
| 2026-05-04 19:29 | 48.36708 | 11.82395 | 1578 ft | 135 kts | 265° |
| 2026-05-04 19:29 | 48.36609 | 11.81046 | 1482 ft | 118 kts | 264° |
| 2026-05-04 19:29 | 48.36539 | 11.80173 | 1485 ft | 55 kts | 263° |
| 2026-05-04 19:29 | 48.36429 | 11.79661 | 1481 ft | 49 kts | 234° |
| 2026-05-04 19:30 | 48.36296 | 11.79390 | 1482 ft | 18 kts | 233° |
| 2026-05-04 19:30 | 48.36245 | 11.79310 | 1481 ft | 0 kts | 212° |
| 2026-05-04 19:30 | 48.36238 | 11.79305 | 1479 ft | 2 kts | 206° |
| 2026-05-04 19:30 | 48.36226 | 11.79299 | 1480 ft | 1 kts | 198° |
| 2026-05-04 19:31 | 48.36219 | 11.79297 | 1477 ft | 2 kts | 185° |
| 2026-05-04 19:31 | 48.36168 | 11.79300 | 1480 ft | 11 kts | 169° |
| 2026-05-04 19:31 | 48.36095 | 11.79317 | 1484 ft | 10 kts | 174° |
| 2026-05-04 19:31 | 48.36030 | 11.79326 | 1481 ft | 9 kts | 173° |
| 2026-05-04 19:32 | 48.35961 | 11.79340 | 1480 ft | 19 kts | 172° |
| 2026-05-04 19:32 | 48.35875 | 11.79380 | 1475 ft | 11 kts | 169° |
| 2026-05-04 19:32 | 48.35812 | 11.79392 | 1478 ft | 6 kts | 173° |
| 2026-05-04 19:32 | 48.35800 | 11.79394 | 1485 ft | 4 kts | 173° |
| 2026-05-04 19:33 | 48.35777 | 11.79399 | 1472 ft | 4 kts | 173° |
| 2026-05-04 19:33 | 48.35748 | 11.79388 | 1476 ft | 3 kts | 238° |
| 2026-05-04 19:33 | 48.35743 | 11.79306 | 1485 ft | 7 kts | 263° |
| 2026-05-04 19:33 | 48.35740 | 11.79263 | 1485 ft | 0 kts | 263° |